Time;durP1;ratioP1;P1;durP2;ratioP2;P2;SDS_P1;SDS_P2;PMS_P1;PMS_P2;Temp;Humidity;BMP_temperature;BMP_pressure;BME280_temperature;BME280_humidity;BME280_pressure;Samples;Min_cycle;Max_cycle;Signal;HPM_P1;HPM_P2
2021/03/09 00:03:50;;;;;;;13.83;9.07;;;2.70;81.50;;;;;;10493245;28;20334;-78
2021/03/09 00:08:53;;;;;;;11.47;8.67;;;2.60;81.20;;;;;;10477345;28;20227;-77
2021/03/09 00:13:55;;;;;;;10.53;9.53;;;2.70;81.40;;;;;;10492481;28;20229;-78
2021/03/09 00:18:56;;;;;;;10.30;9.30;;;2.70;81.20;;;;;;10497310;28;20286;-78
2021/03/09 00:23:59;;;;;;;10.13;9.07;;;2.70;81.40;;;;;;10500926;28;20217;-77
2021/03/09 00:29:01;;;;;;;11.43;10.23;;;2.60;81.40;;;;;;10500021;28;20228;-79
2021/03/09 00:34:02;;;;;;;9.40;8.40;;;2.60;81.70;;;;;;10500199;28;20590;-78
2021/03/09 00:39:06;;;;;;;10.20;9.20;;;2.60;81.40;;;;;;10501128;28;20192;-78
2021/03/09 00:44:07;;;;;;;11.57;9.30;;;2.60;81.60;;;;;;10499779;28;20292;-78
2021/03/09 00:49:09;;;;;;;10.87;9.77;;;2.60;81.60;;;;;;10499718;28;20221;-79
2021/03/09 00:54:12;;;;;;;13.17;9.63;;;2.60;81.70;;;;;;10500006;28;20224;-79
2021/03/09 00:59:14;;;;;;;10.30;9.30;;;2.60;82.00;;;;;;10499956;28;20196;-78
2021/03/09 01:04:16;;;;;;;10.23;9.23;;;2.60;81.90;;;;;;10499107;28;20240;-78
2021/03/09 01:09:18;;;;;;;12.90;10.37;;;2.60;81.90;;;;;;10499421;28;20224;-78
2021/03/09 01:14:20;;;;;;;12.03;10.57;;;2.60;81.90;;;;;;10500264;28;20224;-78
2021/03/09 01:19:22;;;;;;;13.03;10.30;;;2.50;81.70;;;;;;10501385;28;20619;-78
2021/03/09 01:24:25;;;;;;;11.30;10.10;;;2.50;82.30;;;;;;10500603;28;20231;-78
2021/03/09 01:29:27;;;;;;;10.67;9.60;;;2.50;82.30;;;;;;10513377;28;20240;-76
2021/03/09 01:34:28;;;;;;;11.07;9.97;;;2.40;83.00;;;;;;10498686;28;20220;-77
2021/03/09 01:39:31;;;;;;;11.97;10.57;;;2.40;82.40;;;;;;10498397;28;20208;-76
2021/03/09 01:44:33;;;;;;;13.47;10.70;;;2.40;82.40;;;;;;10498663;28;20232;-76
2021/03/09 01:49:37;;;;;;;12.73;11.33;;;2.30;82.90;;;;;;10498460;28;20216;-77
2021/03/09 01:54:41;;;;;;;12.00;10.80;;;2.30;83.40;;;;;;10497114;28;20225;-77
2021/03/09 01:59:44;;;;;;;10.83;9.70;;;2.30;83.00;;;;;;10494685;28;20293;-78
2021/03/09 02:04:46;;;;;;;14.90;11.00;;;2.40;83.10;;;;;;10489569;28;20227;-77
2021/03/09 02:09:49;;;;;;;12.80;11.50;;;2.30;84.10;;;;;;10496122;28;20228;-78
2021/03/09 02:15:02;;;;;;;12.37;11.20;;;2.30;83.60;;;;;;10556940;22;20679;-77
2021/03/09 02:20:51;;;;;;;12.50;11.00;;;2.30;83.60;;;;;;10536909;28;20195;-77
2021/03/09 02:26:17;;;;;;;12.10;10.43;;;2.20;83.40;;;;;;10496314;28;20208;-77
2021/03/09 02:31:23;;;;;;;12.90;11.40;;;2.20;83.70;;;;;;10495419;28;20578;-77
2021/03/09 02:36:28;;;;;;;12.23;10.37;;;2.20;84.00;;;;;;10495736;28;20200;-77
2021/03/09 02:41:31;;;;;;;12.27;11.07;;;2.20;83.90;;;;;;10496116;28;20223;-77
2021/03/09 02:46:36;;;;;;;13.80;11.50;;;2.20;84.10;;;;;;10510835;28;20215;-77
2021/03/09 02:51:40;;;;;;;12.23;10.83;;;2.20;84.30;;;;;;10477993;28;20273;-77
2021/03/09 02:56:43;;;;;;;13.23;10.57;;;2.20;84.50;;;;;;10495556;28;20225;-78
2021/03/09 03:01:48;;;;;;;12.83;11.53;;;2.20;84.50;;;;;;10495177;28;20232;-77
2021/03/09 03:06:52;;;;;;;12.83;11.37;;;2.20;84.10;;;;;;10494926;28;20227;-77
2021/03/09 03:11:55;;;;;;;12.40;11.10;;;2.20;84.40;;;;;;10493840;28;20574;-78
2021/03/09 03:17:01;;;;;;;12.20;10.90;;;2.20;84.40;;;;;;10495155;28;20691;-78
2021/03/09 03:22:04;;;;;;;13.73;12.03;;;2.20;84.20;;;;;;10492824;28;20212;-77
2021/03/09 03:27:07;;;;;;;12.83;11.20;;;2.30;84.10;;;;;;10494686;28;20216;-77
2021/03/09 03:32:10;;;;;;;13.13;11.70;;;2.30;84.10;;;;;;10471100;28;20584;-77
2021/03/09 03:37:13;;;;;;;12.10;10.90;;;2.30;85.20;;;;;;10494158;28;20203;-77
2021/03/09 03:42:17;;;;;;;13.90;10.93;;;2.30;84.10;;;;;;10494769;28;20232;-77
2021/03/09 03:47:19;;;;;;;14.77;11.17;;;2.30;84.00;;;;;;10492650;28;20705;-77
2021/03/09 03:52:31;;;;;;;12.73;11.33;;;2.30;84.20;;;;;;10497196;28;20240;-77
2021/03/09 03:57:42;;;;;;;12.97;11.40;;;2.20;84.20;;;;;;10516355;28;20191;-77
2021/03/09 04:02:48;;;;;;;12.80;11.50;;;2.20;84.60;;;;;;10502483;28;20288;-77
2021/03/09 04:07:51;;;;;;;12.90;11.60;;;2.20;84.70;;;;;;10510865;28;20227;-77
2021/03/09 04:12:55;;;;;;;14.70;11.87;;;2.20;84.40;;;;;;10484639;28;20231;-77
2021/03/09 04:17:59;;;;;;;12.23;10.83;;;2.20;84.80;;;;;;10467592;28;20201;-78
2021/03/09 04:23:01;;;;;;;13.43;12.07;;;2.20;84.60;;;;;;10484108;28;20603;-77
2021/03/09 04:28:04;;;;;;;14.23;12.40;;;2.10;84.60;;;;;;10499377;28;20289;-77
2021/03/09 04:33:08;;;;;;;12.20;11.00;;;2.10;84.90;;;;;;10499212;28;20526;-78
2021/03/09 04:38:10;;;;;;;14.17;12.70;;;2.10;85.00;;;;;;10499788;28;20605;-77
2021/03/09 04:43:12;;;;;;;13.77;11.63;;;2.10;85.70;;;;;;10466006;28;20227;-77
2021/03/09 04:48:15;;;;;;;14.07;12.60;;;2.00;84.90;;;;;;10500114;28;20205;-78
2021/03/09 04:53:17;;;;;;;17.23;13.13;;;2.00;85.90;;;;;;10499874;28;20316;-77
2021/03/09 04:58:19;;;;;;;14.87;13.10;;;2.00;85.30;;;;;;10498427;28;20668;-77
2021/03/09 05:03:23;;;;;;;13.90;12.23;;;2.00;85.40;;;;;;10481137;28;20579;-77
2021/03/09 05:08:25;;;;;;;14.80;13.40;;;1.90;85.40;;;;;;10491212;28;20243;-77
2021/03/09 05:13:27;;;;;;;14.90;13.30;;;2.00;85.40;;;;;;10495310;28;20606;-78
2021/03/09 05:18:29;;;;;;;14.13;12.03;;;2.00;85.70;;;;;;10499124;28;20315;-77
2021/03/09 05:23:31;;;;;;;15.23;13.63;;;2.00;85.70;;;;;;10497589;28;20221;-78
2021/03/09 05:28:33;;;;;;;13.13;11.70;;;2.00;85.50;;;;;;10496714;28;20220;-78
2021/03/09 05:33:35;;;;;;;13.30;11.90;;;2.00;85.50;;;;;;10489735;28;20224;-77
2021/03/09 05:38:37;;;;;;;14.43;12.93;;;2.00;85.60;;;;;;10498105;28;20200;-77
2021/03/09 05:43:39;;;;;;;15.97;13.30;;;2.10;85.50;;;;;;10491793;28;20224;-82
2021/03/09 05:48:41;;;;;;;16.37;13.23;;;2.10;85.80;;;;;;10487454;28;20220;-82
2021/03/09 05:53:43;;;;;;;18.93;15.10;;;2.00;85.70;;;;;;10493528;28;20220;-81
2021/03/09 05:58:47;;;;;;;16.87;15.17;;;2.10;85.70;;;;;;10464156;28;20377;-82
2021/03/09 06:03:49;;;;;;;16.30;14.50;;;2.00;85.30;;;;;;10488392;28;20303;-82
2021/03/09 06:08:51;;;;;;;16.70;14.90;;;2.00;86.00;;;;;;10470518;28;20200;-82
2021/03/09 06:13:54;;;;;;;17.37;14.97;;;2.00;86.20;;;;;;10477207;28;20653;-83
2021/03/09 06:18:58;;;;;;;16.67;14.50;;;2.10;86.40;;;;;;10479824;28;20223;-83
2021/03/09 06:24:18;;;;;;;19.33;14.77;;;2.10;86.40;;;;;;10454882;28;20712;-83
2021/03/09 06:29:20;;;;;;;17.97;14.50;;;2.20;86.20;;;;;;10459998;28;20311;-82
2021/03/09 06:34:28;;;;;;;17.10;15.00;;;2.30;86.40;;;;;;10475674;28;20221;-82
2021/03/09 06:40:05;;;;;;;16.33;14.53;;;2.40;86.10;;;;;;10481002;28;20555;-83
2021/03/09 06:45:09;;;;;;;16.57;14.80;;;2.50;86.40;;;;;;10479292;28;20216;-83
2021/03/09 06:50:14;;;;;;;16.90;14.43;;;2.50;86.20;;;;;;10488186;28;20274;-82
2021/03/09 06:55:27;;;;;;;21.10;15.80;;;2.70;86.60;;;;;;10482500;28;20223;-83
2021/03/09 07:00:28;;;;;;;17.43;15.63;;;2.80;86.20;;;;;;10504376;28;20200;-83
2021/03/09 07:05:31;;;;;;;18.20;16.07;;;2.90;86.00;;;;;;10484837;28;20227;-81
2021/03/09 07:10:35;;;;;;;19.27;16.37;;;3.00;85.80;;;;;;10501144;28;20214;-82
2021/03/09 07:15:39;;;;;;;15.90;14.20;;;3.10;86.00;;;;;;10500377;28;20208;-82
2021/03/09 07:20:42;;;;;;;16.83;15.03;;;3.20;85.70;;;;;;10484015;28;20207;-82
2021/03/09 07:25:46;;;;;;;14.60;12.97;;;3.40;85.10;;;;;;10483076;28;20582;-82
2021/03/09 07:31:03;;;;;;;16.73;13.90;;;3.50;85.10;;;;;;10501277;28;20207;-83
2021/03/09 07:36:08;;;;;;;15.03;13.47;;;3.70;84.70;;;;;;10473789;28;20668;-82
2021/03/09 07:41:10;;;;;;;16.43;13.50;;;3.90;84.00;;;;;;10463729;28;20223;-82
2021/03/09 07:46:13;;;;;;;16.13;14.43;;;4.20;83.20;;;;;;10482095;28;20209;-82
2021/03/09 07:51:16;;;;;;;17.33;14.30;;;4.40;82.70;;;;;;10476728;28;20231;-82
2021/03/09 07:56:21;;;;;;;17.63;14.70;;;4.60;82.20;;;;;;10488534;28;20189;-81
2021/03/09 08:01:44;;;;;;;18.83;13.30;;;4.80;81.60;;;;;;10460244;28;20254;-81
2021/03/09 08:06:47;;;;;;;17.60;14.50;;;5.00;81.60;;;;;;10460460;28;20631;-81
2021/03/09 08:11:49;;;;;;;18.27;13.83;;;5.20;81.00;;;;;;10460513;28;20366;-81
2021/03/09 08:16:52;;;;;;;18.70;15.10;;;5.40;80.50;;;;;;10493803;28;20297;-81
2021/03/09 08:21:57;;;;;;;18.57;15.67;;;5.50;80.40;;;;;;10506627;28;20243;-81
2021/03/09 08:26:58;;;;;;;18.50;15.17;;;5.60;80.00;;;;;;10476618;28;20231;-81
2021/03/09 08:32:36;;;;;;;17.43;14.30;;;5.70;80.00;;;;;;10494016;28;20217;-81
2021/03/09 08:37:40;;;;;;;19.17;16.57;;;5.80;79.40;;;;;;10505795;28;20200;-81
2021/03/09 08:43:16;;;;;;;20.17;14.80;;;5.90;79.20;;;;;;10503183;28;20295;-81
2021/03/09 08:48:18;;;;;;;23.40;17.00;;;6.10;79.30;;;;;;10486110;28;20753;-81
2021/03/09 08:53:30;;;;;;;20.43;16.83;;;6.20;78.90;;;;;;10486411;28;20224;-81
2021/03/09 08:58:34;;;;;;;22.10;17.30;;;6.30;78.20;;;;;;10502675;28;20189;-81
2021/03/09 09:03:37;;;;;;;19.30;15.90;;;6.50;77.60;;;;;;10504889;28;20223;-81
2021/03/09 09:08:42;;;;;;;20.63;17.13;;;6.60;77.20;;;;;;10501019;28;20250;-81
2021/03/09 09:13:44;;;;;;;21.10;17.13;;;6.70;77.90;;;;;;10500613;28;20696;-81
2021/03/09 09:18:46;;;;;;;21.30;16.57;;;6.80;76.90;;;;;;10481978;28;20648;-81
2021/03/09 09:23:49;;;;;;;20.83;17.47;;;7.00;76.80;;;;;;10518277;28;20306;-81
2021/03/09 09:28:52;;;;;;;19.57;16.40;;;7.10;77.00;;;;;;10479194;28;20248;-81
2021/03/09 09:33:55;;;;;;;20.90;16.67;;;7.30;76.30;;;;;;10483099;28;20576;-82
2021/03/09 09:38:59;;;;;;;18.87;16.10;;;7.40;76.00;;;;;;10484330;28;20189;-82
2021/03/09 09:44:01;;;;;;;21.00;16.20;;;7.60;76.10;;;;;;10487766;28;20697;-82
2021/03/09 09:49:03;;;;;;;24.87;17.87;;;7.70;74.70;;;;;;10495676;28;20241;-82
2021/03/09 09:54:13;;;;;;;20.40;17.07;;;7.80;75.00;;;;;;10478168;28;20567;-82
2021/03/09 09:59:26;;;;;;;23.87;16.93;;;7.90;75.10;;;;;;10464108;28;20217;-81
2021/03/09 10:04:33;;;;;;;19.40;16.93;;;8.10;74.30;;;;;;10478641;28;20357;-81
2021/03/09 10:09:36;;;;;;;22.00;16.70;;;8.20;74.50;;;;;;10469248;28;20311;-81
2021/03/09 10:14:53;;;;;;;21.50;16.57;;;8.30;73.20;;;;;;10490098;28;20224;-81
2021/03/09 10:19:55;;;;;;;19.27;17.07;;;8.40;73.50;;;;;;10486365;28;20207;-81
2021/03/09 10:25:11;;;;;;;18.10;15.50;;;8.50;72.80;;;;;;10485280;28;20231;-81
2021/03/09 10:30:16;;;;;;;19.40;15.27;;;8.60;72.50;;;;;;10481467;28;20223;-81
2021/03/09 10:35:18;;;;;;;19.50;15.90;;;8.70;72.20;;;;;;10498198;28;20209;-81
2021/03/09 10:40:21;;;;;;;19.57;17.03;;;8.80;72.50;;;;;;10503767;28;20246;-81
2021/03/09 10:45:25;;;;;;;21.97;15.57;;;8.80;71.90;;;;;;10498226;28;20227;-81
2021/03/09 10:50:28;;;;;;;17.67;15.20;;;8.90;71.80;;;;;;10484219;28;20799;-81
2021/03/09 10:55:31;;;;;;;18.93;16.03;;;9.00;71.50;;;;;;10481291;28;20216;-81
2021/03/09 11:00:33;;;;;;;17.00;15.07;;;9.10;70.20;;;;;;10476218;28;20289;-81
2021/03/09 11:05:35;;;;;;;19.03;16.23;;;9.00;69.30;;;;;;10477077;28;20217;-81
2021/03/09 11:10:38;;;;;;;17.83;14.70;;;9.10;70.50;;;;;;10474886;28;20220;-82
2021/03/09 11:15:40;;;;;;;17.80;14.37;;;9.20;69.60;;;;;;10470044;28;20208;-81
2021/03/09 11:20:43;;;;;;;17.33;15.10;;;9.30;70.70;;;;;;10498670;28;20296;-81
2021/03/09 11:25:46;;;;;;;16.47;14.60;;;9.40;70.10;;;;;;10505346;28;20212;-81
2021/03/09 11:30:48;;;;;;;17.40;14.50;;;9.40;68.50;;;;;;10488476;28;20231;-81
2021/03/09 11:35:49;;;;;;;16.00;14.27;;;9.40;68.50;;;;;;10487913;28;20204;-81
2021/03/09 12:17:49;;;;;;;12.43;10.97;;;9.30;65.30;;;;;;2810358;26;20235;-82
2021/03/09 12:22:51;;;;;;;15.70;13.60;;;9.30;66.30;;;;;;10487951;28;20263;-80
2021/03/09 12:27:52;;;;;;;11.77;10.53;;;9.40;66.00;;;;;;10486260;28;20205;-80
2021/03/09 12:32:55;;;;;;;11.57;9.90;;;9.40;63.40;;;;;;10476528;28;20220;-81
2021/03/09 12:37:57;;;;;;;11.60;10.00;;;9.40;63.00;;;;;;10486757;28;20204;-81
2021/03/09 12:42:59;;;;;;;10.83;9.73;;;9.40;63.20;;;;;;10458806;28;20229;-80
2021/03/09 12:48:03;;;;;;;10.60;9.60;;;9.30;62.40;;;;;;10483223;28;20311;-80
2021/03/09 12:53:05;;;;;;;10.63;9.63;;;9.30;61.40;;;;;;10484665;28;20232;-80
2021/03/09 12:58:07;;;;;;;11.87;10.77;;;9.30;61.80;;;;;;10494270;28;20204;-81
2021/03/09 13:03:10;;;;;;;10.33;9.37;;;9.40;62.60;;;;;;10498159;28;20221;-80
2021/03/09 13:08:11;;;;;;;10.73;9.57;;;9.40;62.60;;;;;;10506821;28;20311;-81
2021/03/09 13:13:19;;;;;;;9.73;8.83;;;9.50;62.00;;;;;;10478901;28;20326;-81
2021/03/09 13:18:22;;;;;;;11.23;10.23;;;9.60;61.60;;;;;;10495861;28;20254;-81
2021/03/09 13:23:24;;;;;;;10.83;9.77;;;9.50;60.40;;;;;;10498017;28;20244;-81
2021/03/09 13:28:26;;;;;;;10.73;9.50;;;9.50;59.00;;;;;;10496911;28;20721;-81
2021/03/09 13:33:29;;;;;;;10.00;9.00;;;9.40;60.20;;;;;;10511180;28;20224;-80
2021/03/09 13:38:31;;;;;;;12.40;10.27;;;9.40;61.50;;;;;;10492802;28;20200;-80
2021/03/09 13:43:33;;;;;;;11.00;10.00;;;9.50;60.50;;;;;;10508849;28;20280;-80
2021/03/09 13:48:39;;;;;;;11.67;10.57;;;9.60;61.00;;;;;;10470809;28;20248;-80
2021/03/09 13:53:41;;;;;;;11.27;10.17;;;9.60;61.60;;;;;;10484993;28;20220;-80
2021/03/09 13:58:42;;;;;;;14.20;10.60;;;9.60;60.50;;;;;;10508701;28;20624;-80
2021/03/09 14:03:46;;;;;;;11.97;10.47;;;9.70;60.20;;;;;;10479718;28;20221;-80
2021/03/09 14:08:48;;;;;;;16.70;10.40;;;9.80;61.50;;;;;;10483649;28;20594;-81
2021/03/09 14:13:50;;;;;;;10.67;9.63;;;9.80;60.10;;;;;;10491306;28;20220;-80
2021/03/09 14:25:19;;;;;;;11.73;10.53;;;9.90;62.20;;;;;;10503736;28;20731;-80
2021/03/09 14:30:21;;;;;;;14.00;12.00;;;9.90;62.30;;;;;;10488443;28;20358;-81
2021/03/09 14:35:24;;;;;;;12.33;11.03;;;9.80;64.00;;;;;;10503946;28;20229;-80
2021/03/09 14:40:28;;;;;;;12.90;11.30;;;9.60;64.30;;;;;;10468032;28;20194;-80
2021/03/09 14:45:30;;;;;;;12.93;11.63;;;9.60;64.50;;;;;;10478071;28;20216;-80
2021/03/09 14:50:33;;;;;;;14.33;12.57;;;9.50;63.90;;;;;;10469573;28;20216;-81
2021/03/09 14:55:38;;;;;;;13.40;12.00;;;9.50;64.80;;;;;;10479832;28;20220;-82
2021/03/09 15:00:40;;;;;;;13.17;11.87;;;9.60;65.20;;;;;;10515221;28;20603;-81
2021/03/09 15:05:42;;;;;;;12.53;11.23;;;9.60;65.00;;;;;;10501188;28;20196;-81
2021/03/09 15:10:45;;;;;;;11.60;10.50;;;9.60;64.30;;;;;;10489599;28;20228;-81
2021/03/09 15:15:47;;;;;;;11.73;10.33;;;9.60;64.20;;;;;;10467073;28;20211;-81
2021/03/09 15:20:50;;;;;;;11.53;10.43;;;9.50;62.70;;;;;;10492287;28;20653;-81
2021/03/09 15:25:52;;;;;;;11.47;10.27;;;9.50;64.20;;;;;;10473557;28;20254;-80
2021/03/09 15:30:54;;;;;;;12.00;10.70;;;9.40;64.30;;;;;;10491533;28;20723;-81
2021/03/09 15:35:57;;;;;;;10.60;9.50;;;9.30;64.10;;;;;;10467524;28;20656;-81
2021/03/09 15:40:59;;;;;;;11.77;10.57;;;9.30;63.70;;;;;;10492028;28;20719;-81
2021/03/09 15:46:01;;;;;;;11.27;10.17;;;9.20;64.70;;;;;;10492013;28;20756;-81
2021/03/09 15:51:05;;;;;;;11.17;10.03;;;9.10;65.00;;;;;;10501353;28;20232;-81
2021/03/09 15:56:07;;;;;;;13.10;10.40;;;9.00;64.20;;;;;;10485239;28;20205;-81
2021/03/09 16:01:09;;;;;;;11.97;9.50;;;9.00;64.50;;;;;;10485558;28;20213;-81
2021/03/09 16:06:12;;;;;;;11.67;10.47;;;8.90;65.50;;;;;;10512446;28;20203;-81
2021/03/09 16:11:14;;;;;;;12.50;11.30;;;8.90;65.30;;;;;;10486854;28;20583;-81
2021/03/09 16:16:17;;;;;;;12.60;11.20;;;8.80;66.00;;;;;;10487994;28;21128;-81
2021/03/09 16:21:19;;;;;;;12.07;10.77;;;8.80;66.00;;;;;;10497837;28;20378;-81
2021/03/09 16:26:22;;;;;;;13.47;12.10;;;8.80;65.90;;;;;;10511551;28;20260;-81
2021/03/09 16:31:24;;;;;;;12.27;11.10;;;8.80;66.60;;;;;;10507200;28;20303;-80
2021/03/09 16:36:27;;;;;;;12.20;10.90;;;8.80;67.20;;;;;;10510737;28;20196;-80
2021/03/09 16:41:29;;;;;;;14.03;12.17;;;8.80;67.10;;;;;;10522072;28;20224;-81
2021/03/09 16:46:31;;;;;;;15.33;11.47;;;8.70;66.70;;;;;;10508390;28;20201;-81
2021/03/09 16:51:34;;;;;;;13.43;12.17;;;8.70;66.90;;;;;;10509901;28;20233;-81
2021/03/09 16:56:36;;;;;;;15.90;12.60;;;8.70;67.50;;;;;;10517176;28;20201;-79
2021/03/09 17:07:22;;;;;;;13.93;12.27;;;8.70;68.70;;;;;;10468782;28;20248;-78
2021/03/09 17:12:24;;;;;;;13.93;12.50;;;8.60;68.70;;;;;;10501744;28;20304;-78
2021/03/09 17:17:27;;;;;;;13.60;12.23;;;8.60;69.20;;;;;;10504775;28;20692;-78
2021/03/09 17:22:30;;;;;;;14.97;13.47;;;8.50;69.80;;;;;;10504295;28;20269;-78
2021/03/09 17:27:32;;;;;;;17.10;13.73;;;8.50;69.30;;;;;;10517625;28;20212;-79
2021/03/09 17:32:34;;;;;;;13.53;12.20;;;8.50;68.70;;;;;;10509532;28;20221;-78
2021/03/09 17:37:37;;;;;;;15.83;13.50;;;8.50;68.30;;;;;;10483338;28;20232;-77
2021/03/09 17:42:39;;;;;;;15.50;13.10;;;8.50;69.90;;;;;;10479021;28;20320;-77
2021/03/09 17:47:41;;;;;;;13.73;12.30;;;8.50;68.80;;;;;;10479078;28;20603;-78
2021/03/09 17:52:43;;;;;;;14.03;12.57;;;8.50;67.60;;;;;;10484173;28;20232;-78
2021/03/09 17:57:45;;;;;;;14.03;12.63;;;8.40;66.70;;;;;;10485567;28;20269;-80
2021/03/09 18:02:47;;;;;;;13.80;12.30;;;8.40;66.40;;;;;;10494285;28;20217;-78
2021/03/09 18:07:49;;;;;;;16.17;14.00;;;8.40;67.60;;;;;;10493864;28;20220;-77
2021/03/09 18:12:56;;;;;;;13.90;12.53;;;8.40;67.50;;;;;;10460234;28;20247;-77
2021/03/09 18:17:58;;;;;;;15.53;13.90;;;8.40;67.00;;;;;;10471327;28;20669;-77
2021/03/09 18:23:01;;;;;;;14.83;13.20;;;8.40;66.80;;;;;;10479769;28;20653;-77
2021/03/09 18:28:02;;;;;;;15.10;12.70;;;8.40;66.60;;;;;;10476444;28;20219;-78
2021/03/09 18:33:05;;;;;;;12.53;11.13;;;8.40;67.30;;;;;;10488587;28;20311;-77
2021/03/09 18:38:08;;;;;;;12.73;11.30;;;8.30;67.90;;;;;;10488306;28;20257;-78
2021/03/09 18:43:10;;;;;;;13.60;12.30;;;8.30;68.50;;;;;;10488790;28;20228;-78
2021/03/09 18:48:12;;;;;;;13.50;12.20;;;8.30;69.00;;;;;;10495051;28;20674;-80
2021/03/09 18:53:15;;;;;;;12.80;11.50;;;8.30;68.70;;;;;;10470879;28;20232;-78
2021/03/09 18:58:17;;;;;;;14.20;12.80;;;8.30;70.00;;;;;;10488904;28;20197;-78
2021/03/09 19:03:19;;;;;;;14.83;13.03;;;8.30;68.80;;;;;;10488111;28;20228;-78
2021/03/09 19:08:21;;;;;;;14.63;13.10;;;8.30;68.00;;;;;;10491607;28;20239;-77
2021/03/09 19:13:23;;;;;;;13.37;12.00;;;8.20;68.00;;;;;;10490303;28;20235;-78
2021/03/09 19:18:25;;;;;;;12.30;11.10;;;8.10;69.60;;;;;;10486357;28;20212;-78
2021/03/09 19:23:28;;;;;;;12.27;11.07;;;8.10;70.00;;;;;;10485454;28;20684;-78
2021/03/09 19:28:30;;;;;;;10.93;9.83;;;8.10;71.00;;;;;;10525971;28;20273;-78
2021/03/09 19:33:31;;;;;;;9.63;8.73;;;8.10;72.30;;;;;;10475831;28;20224;-77
2021/03/09 19:38:35;;;;;;;11.20;9.77;;;8.10;74.20;;;;;;10498795;28;20211;-78
2021/03/09 19:43:37;;;;;;;10.90;9.90;;;8.10;76.10;;;;;;10477097;28;20232;-77
2021/03/09 19:48:38;;;;;;;13.33;10.13;;;8.00;77.20;;;;;;10507398;28;20303;-77
2021/03/09 19:53:41;;;;;;;10.40;9.40;;;8.00;78.50;;;;;;10467864;28;20228;-78
2021/03/09 19:58:43;;;;;;;11.50;10.30;;;8.00;77.30;;;;;;10476038;28;20558;-78
2021/03/09 20:03:45;;;;;;;12.70;10.63;;;7.90;77.00;;;;;;10479475;28;20288;-78
2021/03/09 20:08:49;;;;;;;12.03;10.90;;;7.90;77.70;;;;;;10477982;28;20271;-78
2021/03/09 20:13:57;;;;;;;12.17;10.97;;;7.80;77.10;;;;;;10478210;28;20727;-81
2021/03/09 20:18:59;;;;;;;14.00;12.60;;;7.80;78.90;;;;;;10471849;28;20296;-79
2021/03/09 20:24:02;;;;;;;15.17;13.67;;;7.80;78.90;;;;;;10490689;28;20289;-80
2021/03/09 20:29:05;;;;;;;16.30;14.60;;;7.70;80.50;;;;;;10476626;28;20209;-78
2021/03/09 20:34:07;;;;;;;15.47;13.87;;;7.70;81.60;;;;;;10475381;28;20616;-78
2021/03/09 20:39:12;;;;;;;14.90;13.40;;;7.70;82.40;;;;;;10484724;28;20197;-78
2021/03/09 20:44:14;;;;;;;14.73;13.23;;;7.60;83.20;;;;;;10482671;28;20251;-79
2021/03/09 20:49:16;;;;;;;15.20;13.60;;;7.70;83.10;;;;;;10487878;28;20232;-78
2021/03/09 20:54:19;;;;;;;16.10;14.43;;;7.70;82.90;;;;;;10490540;28;20255;-78
2021/03/09 20:59:21;;;;;;;15.40;13.77;;;7.70;82.80;;;;;;10491346;28;20278;-79
2021/03/09 21:04:23;;;;;;;13.80;12.50;;;7.70;82.00;;;;;;10501076;28;20229;-79
2021/03/09 21:09:25;;;;;;;16.80;14.53;;;7.70;81.90;;;;;;10495293;28;20362;-79
2021/03/09 21:14:28;;;;;;;16.93;15.23;;;7.70;81.40;;;;;;10503553;28;20231;-77
2021/03/09 21:19:30;;;;;;;15.37;13.77;;;7.60;81.30;;;;;;10491906;28;20212;-81
2021/03/09 21:24:32;;;;;;;17.20;15.20;;;7.60;81.30;;;;;;10470240;28;20271;-78
2021/03/09 21:29:34;;;;;;;17.87;16.00;;;7.50;82.00;;;;;;10499634;28;20315;-79
2021/03/09 21:34:36;;;;;;;18.67;16.60;;;7.50;81.60;;;;;;10475064;28;20297;-79
2021/03/09 21:39:50;;;;;;;18.13;16.23;;;7.50;82.30;;;;;;10497632;28;20215;-80
2021/03/09 21:44:52;;;;;;;16.23;14.70;;;7.50;82.30;;;;;;10531372;28;20228;-77
2021/03/09 21:49:54;;;;;;;20.93;16.50;;;7.50;82.50;;;;;;10509834;28;20223;-78
2021/03/09 21:54:56;;;;;;;18.80;16.80;;;7.40;82.20;;;;;;10501982;28;20331;-78
2021/03/09 21:59:59;;;;;;;20.37;16.90;;;7.40;81.30;;;;;;10501642;28;20204;-80
2021/03/09 22:05:04;;;;;;;19.10;17.07;;;7.40;81.60;;;;;;10501560;28;20250;-79
2021/03/09 22:10:09;;;;;;;17.37;15.67;;;7.40;81.60;;;;;;10501690;28;20228;-78
2021/03/09 22:15:12;;;;;;;18.30;16.00;;;7.40;81.80;;;;;;10501955;28;20235;-80
2021/03/09 22:20:15;;;;;;;18.97;16.80;;;7.40;81.80;;;;;;10493740;28;20746;-81
2021/03/09 22:25:18;;;;;;;18.50;16.47;;;7.40;81.90;;;;;;10499617;28;20216;-79
2021/03/09 22:30:20;;;;;;;18.23;16.27;;;7.40;81.80;;;;;;10496446;28;20223;-81
2021/03/09 22:35:22;;;;;;;19.40;17.50;;;7.40;82.10;;;;;;10480407;28;20297;-81
2021/03/09 22:40:25;;;;;;;19.57;16.37;;;7.40;82.20;;;;;;10495723;28;20271;-78
2021/03/09 22:45:26;;;;;;;17.97;16.10;;;7.40;82.30;;;;;;10483906;28;20231;-79
2021/03/09 22:50:31;;;;;;;18.43;16.63;;;7.50;82.60;;;;;;10496477;28;20228;-81
2021/03/09 22:55:33;;;;;;;22.37;19.27;;;7.40;83.00;;;;;;10495658;28;20319;-79
2021/03/09 23:00:38;;;;;;;19.57;17.23;;;7.40;83.30;;;;;;10478849;28;20730;-78
2021/03/09 23:05:39;;;;;;;21.93;18.20;;;7.40;84.30;;;;;;10493842;28;20218;-79
2021/03/09 23:10:42;;;;;;;25.90;19.40;;;7.40;84.60;;;;;;10495564;28;20231;-79
2021/03/09 23:15:44;;;;;;;21.87;18.10;;;7.40;84.60;;;;;;10495553;28;20637;-80
2021/03/09 23:20:47;;;;;;;21.33;18.37;;;7.40;85.70;;;;;;10489597;28;20679;-78
2021/03/09 23:25:50;;;;;;;19.10;17.10;;;7.40;85.30;;;;;;10511637;28;20219;-79
2021/03/09 23:30:52;;;;;;;20.00;17.20;;;7.40;84.90;;;;;;10506105;28;20625;-79
2021/03/09 23:35:54;;;;;;;21.93;18.90;;;7.40;84.10;;;;;;10508221;28;20569;-79
2021/03/09 23:40:56;;;;;;;20.17;17.93;;;7.40;84.40;;;;;;10468630;28;20231;-78
2021/03/09 23:45:58;;;;;;;23.13;19.57;;;7.30;84.90;;;;;;10483156;28;20212;-78
2021/03/09 23:51:00;;;;;;;22.70;19.00;;;7.30;84.80;;;;;;10471048;28;20713;-78
2021/03/09 23:56:06;;;;;;;21.30;17.70;;;7.40;85.70;;;;;;10483466;28;20298;-79
